Alpine Link — V7SZ7 — position and weather

sailwx.info

Track history (hours):
 
Tides and Currents Weather Stations Pressure Air Temp Water Temp Dewpoint Dewpoint Depression Visibility Wind Speed Wind Dir Waves Ship Positions

Alpine Link

Last reported at 2014-Aug-28 10:24 UTC. Time now 2014-Aug-31 02:39 UTC.
Position N 44°59' E 036°37'.

Length 183 m; draft 7.5 m.

Type: Tanker. MMSI: 538003758.

Date/timePositionNaut miles runAvg speedWind from/ knotsBaromVisibWave heightAir tempDewpointWater temp
2014-Aug-28 10:24N 44°59' E 036°37'0 0.0
2014-Aug-28 09:18N 44°59' E 036°37'0 0.0
2014-Aug-28 08:33N 44°59' E 036°37'0 0.1
2014-Aug-28 07:24N 44°59' E 036°37'0 0.1
2014-Aug-28 05:33N 44°59' E 036°37'0 0.0
2014-Aug-28 04:33N 44°59' E 036°37'0 0.0
2014-Aug-28 03:33N 44°59' E 036°37'0 0.0
2014-Aug-28 02:30N 44°59' E 036°37'0 0.0
2014-Aug-27 15:15N 44°59' E 036°37'0 0.0
2014-Aug-27 14:33N 44°59' E 036°37'0 0.1
2014-Aug-27 13:33N 44°59' E 036°37'0 0.0
2014-Aug-27 00:30N 44°59' E 036°37'412 8.4
2014-Aug-24 23:33N 40°59' E 028°60'9 9.1
2014-Aug-24 22:33N 40°51' E 028°53'8 8.3
2014-Aug-24 21:33N 40°44' E 028°47'1 0.7
2014-Aug-24 20:33N 40°45' E 028°48'1 0.5
2014-Aug-24 18:15N 40°45' E 028°49'2 3.2
2014-Aug-24 17:33N 40°43' E 028°48'3 2.5
2014-Aug-24 16:23N 40°41' E 028°45'1 0.9
2014-Aug-24 15:29N 40°42' E 028°45'1 0.8
2014-Aug-24 14:29N 40°43' E 028°45'1 0.7
2014-Aug-24 13:29N 40°44' E 028°44'1 0.8
2014-Aug-24 12:23N 40°44' E 028°44'1 1.3
2014-Aug-24 11:23N 40°46' E 028°44'6 7.7
2014-Aug-24 10:33N 40°49' E 028°36'7013.0
2014-Aug-24 05:09N 40°32' E 027°07'912.9
2014-Aug-24 04:28N 40°29' E 026°56'1212.4
2014-Aug-24 03:27N 40°23' E 026°41'3310.8
2014-Aug-24 00:24N 40°01' E 026°09'8 9.2
2014-Aug-23 23:33N 39°58' E 026°00'7 7.3
2014-Aug-23 22:33N 39°51' E 025°55'90 4.7
2014-Aug-23 03:33N 38°25' E 025°28'1414.2
2014-Aug-23 02:33N 38°11' E 025°34'1414.0
2014-Aug-23 01:33N 37°58' E 025°40'1414.0
2014-Aug-23 00:32N 37°45' E 025°47'1413.8
2014-Aug-22 23:33N 37°32' E 025°51'1413.8
2014-Aug-22 22:33N 37°19' E 025°59'1313.4
2014-Aug-22 21:33N 37°08' E 026°07'1413.4
2014-Aug-22 20:33N 36°56' E 026°15'1313.2
2014-Aug-22 19:33N 36°45' E 026°25'1913.8
2014-Aug-22 18:12N 36°31' E 026°40'913.8
2014-Aug-22 17:32N 36°24' E 026°48'1413.4
2014-Aug-22 16:31N 36°14' E 026°59'1413.1
2014-Aug-22 15:29N 36°04' E 027°11'28513.3
2014-Aug-21 18:05N 34°27' E 032°38'713.1
2014-Aug-21 17:33N 34°27' E 032°47'1313.0
2014-Aug-21 16:32N 34°27' E 033°02'1312.9
2014-Aug-21 15:33N 34°30' E 033°17'1 1.4
2014-Aug-21 14:33N 34°31' E 033°19'1 0.8
2014-Aug-21 13:33N 34°31' E 033°20'1 0.7
2014-Aug-21 12:33N 34°31' E 033°19'1 0.7
2014-Aug-21 11:33N 34°30' E 033°19'1 0.7
2014-Aug-21 10:33N 34°30' E 033°18'1 0.8
2014-Aug-21 09:33N 34°29' E 033°17'1 0.7
2014-Aug-21 08:33N 34°29' E 033°17'1 0.6
2014-Aug-21 07:33N 34°28' E 033°16'1 1.1
2014-Aug-21 06:33N 34°28' E 033°17'3 3.3
2014-Aug-21 05:33N 34°31' E 033°18'4 4.0
2014-Aug-21 04:33N 34°34' E 033°20'1 0.6
2014-Aug-21 03:33N 34°34' E 033°21'1 0.6
2014-Aug-21 02:33N 34°34' E 033°20'1 0.7
2014-Aug-21 01:33N 34°33' E 033°20'1 0.7
2014-Aug-21 00:33N 34°32' E 033°20'1 0.7
2014-Aug-20 23:33N 34°32' E 033°20'1 0.6
2014-Aug-20 22:33N 34°31' E 033°20'0 0.5
2014-Aug-20 21:33N 34°31' E 033°19'0 0.5
2014-Aug-20 20:33N 34°30' E 033°19'1 0.9
2014-Aug-20 19:33N 34°29' E 033°19'1 1.2
2014-Aug-20 18:33N 34°29' E 033°21'4 3.5
2014-Aug-20 17:32N 34°32' E 033°23'1 1.5
2014-Aug-20 16:33N 34°33' E 033°25'1 0.7
2014-Aug-20 15:33N 34°33' E 033°24'1 0.8
2014-Aug-20 14:33N 34°32' E 033°23'1 0.9
2014-Aug-20 13:33N 34°31' E 033°23'1 0.9
2014-Aug-20 12:33N 34°31' E 033°22'1 0.9
2014-Aug-20 11:33N 34°30' E 033°21'1 0.8
2014-Aug-20 10:33N 34°29' E 033°21'2 1.7
2014-Aug-20 09:33N 34°30' E 033°23'3 3.3
2014-Aug-20 08:33N 34°31' E 033°26'1 1.0
2014-Aug-20 07:33N 34°30' E 033°27'3 3.2
2014-Aug-20 06:33N 34°28' E 033°24'5 5.4
2014-Aug-20 05:32N 34°24' E 033°20'3 2.7
2014-Aug-20 04:33N 34°25' E 033°17'4 3.6
2014-Aug-20 03:33N 34°28' E 033°20'1 0.7
2014-Aug-20 02:30N 34°28' E 033°19'0 0.3
2014-Aug-20 01:27N 34°27' E 033°19'3 3.8
2014-Aug-20 00:34N 34°30' E 033°16'1 0.8
2014-Aug-19 23:34N 34°30' E 033°16'0 0.3
2014-Aug-19 22:34N 34°30' E 033°16'6 6.3
2014-Aug-19 21:33N 34°27' E 033°22'3 2.1
2014-Aug-19 20:23N 34°24' E 033°22'2 0.8
2014-Aug-19 17:20N 34°24' E 033°20'1 0.9
2014-Aug-19 16:29N 34°24' E 033°19'1 1.0
2014-Aug-19 15:29N 34°23' E 033°18'6 1.2
2014-Aug-19 10:11N 34°22' E 033°10'1 1.3
2014-Aug-19 09:32N 34°22' E 033°09'1 0.5
2014-Aug-19 08:33N 34°22' E 033°10'1312.3
2014-Aug-19 07:32N 34°23' E 033°25'19 2.6
2014-Aug-19 00:18N 34°24' E 033°48'1 0.7
2014-Aug-18 22:12N 34°23' E 033°46'3 0.8
2014-Aug-18 18:24N 34°23' E 033°42'1 0.8
2014-Aug-18 17:21N 34°24' E 033°41'2 0.9
2014-Aug-18 15:18N 34°24' E 033°39'2 1.0
2014-Aug-18 13:33N 34°24' E 033°37'1 1.0
2014-Aug-18 12:15N 34°23' E 033°35'1 1.0
2014-Aug-18 11:24N 34°23' E 033°34'1 1.0
2014-Aug-18 10:33N 34°23' E 033°34'  
Track history (hours):
 
Tides and Currents Weather Stations Pressure Air Temp Water Temp Dewpoint Dewpoint Depression Visibility Wind Speed Wind Dir Waves Ship Positions

Alpine Link

Last reported at 2014-Aug-28 10:24 UTC. Time now 2014-Aug-31 02:39 UTC.
Position N 44°59' E 036°37'.

Length 183 m; draft 7.5 m.

Type: Tanker. MMSI: 538003758.

Date/timePositionNaut miles runAvg speedWind from/ knotsBaromVisibWave heightAir tempDewpointWater temp
2014-Aug-28 10:24N 44°59' E 036°37'0 0.0
2014-Aug-28 09:18N 44°59' E 036°37'0 0.0
2014-Aug-28 08:33N 44°59' E 036°37'0 0.1
2014-Aug-28 07:24N 44°59' E 036°37'0 0.1
2014-Aug-28 05:33N 44°59' E 036°37'0 0.0
2014-Aug-28 04:33N 44°59' E 036°37'0 0.0
2014-Aug-28 03:33N 44°59' E 036°37'0 0.0
2014-Aug-28 02:30N 44°59' E 036°37'0 0.0
2014-Aug-27 15:15N 44°59' E 036°37'0 0.0
2014-Aug-27 14:33N 44°59' E 036°37'0 0.1
2014-Aug-27 13:33N 44°59' E 036°37'0 0.0
2014-Aug-27 00:30N 44°59' E 036°37'412 8.4
2014-Aug-24 23:33N 40°59' E 028°60'9 9.1
2014-Aug-24 22:33N 40°51' E 028°53'8 8.3
2014-Aug-24 21:33N 40°44' E 028°47'1 0.7
2014-Aug-24 20:33N 40°45' E 028°48'1 0.5
2014-Aug-24 18:15N 40°45' E 028°49'2 3.2
2014-Aug-24 17:33N 40°43' E 028°48'3 2.5
2014-Aug-24 16:23N 40°41' E 028°45'1 0.9
2014-Aug-24 15:29N 40°42' E 028°45'1 0.8
2014-Aug-24 14:29N 40°43' E 028°45'1 0.7
2014-Aug-24 13:29N 40°44' E 028°44'1 0.8
2014-Aug-24 12:23N 40°44' E 028°44'1 1.3
2014-Aug-24 11:23N 40°46' E 028°44'6 7.7
2014-Aug-24 10:33N 40°49' E 028°36'7013.0
2014-Aug-24 05:09N 40°32' E 027°07'912.9
2014-Aug-24 04:28N 40°29' E 026°56'1212.4
2014-Aug-24 03:27N 40°23' E 026°41'3310.8
2014-Aug-24 00:24N 40°01' E 026°09'8 9.2
2014-Aug-23 23:33N 39°58' E 026°00'7 7.3
2014-Aug-23 22:33N 39°51' E 025°55'90 4.7
2014-Aug-23 03:33N 38°25' E 025°28'1414.2
2014-Aug-23 02:33N 38°11' E 025°34'1414.0
2014-Aug-23 01:33N 37°58' E 025°40'1414.0
2014-Aug-23 00:32N 37°45' E 025°47'1413.8
2014-Aug-22 23:33N 37°32' E 025°51'1413.8
2014-Aug-22 22:33N 37°19' E 025°59'1313.4
2014-Aug-22 21:33N 37°08' E 026°07'1413.4
2014-Aug-22 20:33N 36°56' E 026°15'1313.2
2014-Aug-22 19:33N 36°45' E 026°25'1913.8
2014-Aug-22 18:12N 36°31' E 026°40'913.8
2014-Aug-22 17:32N 36°24' E 026°48'1413.4
2014-Aug-22 16:31N 36°14' E 026°59'1413.1
2014-Aug-22 15:29N 36°04' E 027°11'28513.3
2014-Aug-21 18:05N 34°27' E 032°38'713.1
2014-Aug-21 17:33N 34°27' E 032°47'1313.0
2014-Aug-21 16:32N 34°27' E 033°02'1312.9
2014-Aug-21 15:33N 34°30' E 033°17'1 1.4
2014-Aug-21 14:33N 34°31' E 033°19'1 0.8
2014-Aug-21 13:33N 34°31' E 033°20'1 0.7
2014-Aug-21 12:33N 34°31' E 033°19'1 0.7
2014-Aug-21 11:33N 34°30' E 033°19'1 0.7
2014-Aug-21 10:33N 34°30' E 033°18'1 0.8
2014-Aug-21 09:33N 34°29' E 033°17'1 0.7
2014-Aug-21 08:33N 34°29' E 033°17'1 0.6
2014-Aug-21 07:33N 34°28' E 033°16'1 1.1
2014-Aug-21 06:33N 34°28' E 033°17'3 3.3
2014-Aug-21 05:33N 34°31' E 033°18'4 4.0
2014-Aug-21 04:33N 34°34' E 033°20'1 0.6
2014-Aug-21 03:33N 34°34' E 033°21'1 0.6
2014-Aug-21 02:33N 34°34' E 033°20'1 0.7
2014-Aug-21 01:33N 34°33' E 033°20'1 0.7
2014-Aug-21 00:33N 34°32' E 033°20'1 0.7
2014-Aug-20 23:33N 34°32' E 033°20'1 0.6
2014-Aug-20 22:33N 34°31' E 033°20'0 0.5
2014-Aug-20 21:33N 34°31' E 033°19'0 0.5
2014-Aug-20 20:33N 34°30' E 033°19'1 0.9
2014-Aug-20 19:33N 34°29' E 033°19'1 1.2
2014-Aug-20 18:33N 34°29' E 033°21'4 3.5
2014-Aug-20 17:32N 34°32' E 033°23'1 1.5
2014-Aug-20 16:33N 34°33' E 033°25'1 0.7
2014-Aug-20 15:33N 34°33' E 033°24'1 0.8
2014-Aug-20 14:33N 34°32' E 033°23'1 0.9
2014-Aug-20 13:33N 34°31' E 033°23'1 0.9
2014-Aug-20 12:33N 34°31' E 033°22'1 0.9
2014-Aug-20 11:33N 34°30' E 033°21'1 0.8
2014-Aug-20 10:33N 34°29' E 033°21'2 1.7
2014-Aug-20 09:33N 34°30' E 033°23'3 3.3
2014-Aug-20 08:33N 34°31' E 033°26'1 1.0
2014-Aug-20 07:33N 34°30' E 033°27'3 3.2
2014-Aug-20 06:33N 34°28' E 033°24'5 5.4
2014-Aug-20 05:32N 34°24' E 033°20'3 2.7
2014-Aug-20 04:33N 34°25' E 033°17'4 3.6
2014-Aug-20 03:33N 34°28' E 033°20'1 0.7
2014-Aug-20 02:30N 34°28' E 033°19'0 0.3
2014-Aug-20 01:27N 34°27' E 033°19'3 3.8
2014-Aug-20 00:34N 34°30' E 033°16'1 0.8
2014-Aug-19 23:34N 34°30' E 033°16'0 0.3
2014-Aug-19 22:34N 34°30' E 033°16'6 6.3
2014-Aug-19 21:33N 34°27' E 033°22'3 2.1
2014-Aug-19 20:23N 34°24' E 033°22'2 0.8
2014-Aug-19 17:20N 34°24' E 033°20'1 0.9
2014-Aug-19 16:29N 34°24' E 033°19'1 1.0
2014-Aug-19 15:29N 34°23' E 033°18'6 1.2
2014-Aug-19 10:11N 34°22' E 033°10'1 1.3
2014-Aug-19 09:32N 34°22' E 033°09'1 0.5
2014-Aug-19 08:33N 34°22' E 033°10'1312.3
2014-Aug-19 07:32N 34°23' E 033°25'19 2.6
2014-Aug-19 00:18N 34°24' E 033°48'1 0.7
2014-Aug-18 22:12N 34°23' E 033°46'3 0.8
2014-Aug-18 18:24N 34°23' E 033°42'1 0.8
2014-Aug-18 17:21N 34°24' E 033°41'2 0.9
2014-Aug-18 15:18N 34°24' E 033°39'2 1.0
2014-Aug-18 13:33N 34°24' E 033°37'1 1.0
2014-Aug-18 12:15N 34°23' E 033°35'1 1.0
2014-Aug-18 11:24N 34°23' E 033°34'1 1.0
2014-Aug-18 10:33N 34°23' E 033°34'  

Dump ship's entire track history